sensor_id;sensor_type;location;lat;lon;timestamp;pressure;altitude;pressure_sealevel;temperature;humidity
73455;BME280;61690;51.824;6.306;2023-05-02T00:00:40;101845.44;;;18.79;49.49
73455;BME280;61690;51.824;6.306;2023-05-02T00:03:07;101848.06;;;18.79;49.33
73455;BME280;61690;51.824;6.306;2023-05-02T00:05:33;101845.53;;;18.77;49.47
73455;BME280;61690;51.824;6.306;2023-05-02T00:07:58;101846.47;;;18.76;49.73
73455;BME280;61690;51.824;6.306;2023-05-02T00:10:24;101846.53;;;18.75;49.41
73455;BME280;61690;51.824;6.306;2023-05-02T00:12:49;101848.19;;;18.77;49.72
73455;BME280;61690;51.824;6.306;2023-05-02T00:15:16;101848.25;;;18.76;49.27
73455;BME280;61690;51.824;6.306;2023-05-02T00:17:41;101856.22;;;18.74;49.36
73455;BME280;61690;51.824;6.306;2023-05-02T00:20:09;101857.25;;;18.72;49.27
73455;BME280;61690;51.824;6.306;2023-05-02T00:22:35;101851.88;;;18.73;49.67
73455;BME280;61690;51.824;6.306;2023-05-02T00:25:01;101857.13;;;18.73;49.27
73455;BME280;61690;51.824;6.306;2023-05-02T00:27:26;101853.84;;;18.70;49.67
73455;BME280;61690;51.824;6.306;2023-05-02T00:29:52;101858.94;;;18.73;49.32
73455;BME280;61690;51.824;6.306;2023-05-02T00:32:19;101858.09;;;18.72;49.45
73455;BME280;61690;51.824;6.306;2023-05-02T00:34:45;101860.78;;;18.71;49.74
73455;BME280;61690;51.824;6.306;2023-05-02T00:37:11;101859.09;;;18.70;49.68
73455;BME280;61690;51.824;6.306;2023-05-02T00:39:37;101859.88;;;18.72;49.44
73455;BME280;61690;51.824;6.306;2023-05-02T00:42:03;101860.88;;;18.69;49.62
73455;BME280;61690;51.824;6.306;2023-05-02T00:44:28;101854.69;;;18.70;49.43
73455;BME280;61690;51.824;6.306;2023-05-02T00:46:54;101868.78;;;18.69;49.70
73455;BME280;61690;51.824;6.306;2023-05-02T00:49:20;101866.22;;;18.68;49.60
73455;BME280;61690;51.824;6.306;2023-05-02T00:51:46;101873.13;;;18.70;49.50
73455;BME280;61690;51.824;6.306;2023-05-02T00:54:12;101873.19;;;18.69;49.31
73455;BME280;61690;51.824;6.306;2023-05-02T00:56:38;101868.94;;;18.66;49.70
73455;BME280;61690;51.824;6.306;2023-05-02T00:59:04;101870.63;;;18.67;49.63
73455;BME280;61690;51.824;6.306;2023-05-02T01:06:57;101862.81;;;18.66;49.66
73455;BME280;61690;51.824;6.306;2023-05-02T01:09:45;101875.19;;;18.64;49.30
73455;BME280;61690;51.824;6.306;2023-05-02T01:14:52;101869.94;;;18.64;49.22
73455;BME280;61690;51.824;6.306;2023-05-02T01:17:26;101868.06;;;18.66;49.54
73455;BME280;61690;51.824;6.306;2023-05-02T01:19:56;101872.50;;;18.65;49.38
73455;BME280;61690;51.824;6.306;2023-05-02T01:22:27;101871.72;;;18.63;49.58
73455;BME280;61690;51.824;6.306;2023-05-02T01:28:15;101873.44;;;18.64;49.46
73455;BME280;61690;51.824;6.306;2023-05-02T01:30:47;101880.56;;;18.62;49.11
73455;BME280;61690;51.824;6.306;2023-05-02T01:33:16;101872.66;;;18.62;49.31
73455;BME280;61690;51.824;6.306;2023-05-02T01:35:45;101870.09;;;18.60;49.54
73455;BME280;61690;51.824;6.306;2023-05-02T01:38:14;101877.25;;;18.58;49.29
73455;BME280;61690;51.824;6.306;2023-05-02T01:40:44;101877.25;;;18.58;49.43
73455;BME280;61690;51.824;6.306;2023-05-02T01:43:11;101875.44;;;18.59;49.46
73455;BME280;61690;51.824;6.306;2023-05-02T01:45:40;101885.91;;;18.60;49.23
73455;BME280;61690;51.824;6.306;2023-05-02T01:48:07;101875.38;;;18.60;49.41
73455;BME280;61690;51.824;6.306;2023-05-02T01:50:35;101886.91;;;18.58;49.13
73455;BME280;61690;51.824;6.306;2023-05-02T01:53:03;101880.72;;;18.59;49.12
73455;BME280;61690;51.824;6.306;2023-05-02T01:55:33;101881.81;;;18.55;49.33
73455;BME280;61690;51.824;6.306;2023-05-02T01:58:00;101886.91;;;18.58;49.61
73455;BME280;61690;51.824;6.306;2023-05-02T02:00:28;101889.41;;;18.61;48.97
73455;BME280;61690;51.824;6.306;2023-05-02T02:02:55;101890.47;;;18.57;49.29
73455;BME280;61690;51.824;6.306;2023-05-02T02:05:23;101893.88;;;18.59;49.40
73455;BME280;61690;51.824;6.306;2023-05-02T02:07:48;101889.63;;;18.56;49.47
73455;BME280;61690;51.824;6.306;2023-05-02T02:10:16;101898.31;;;18.58;49.52
73455;BME280;61690;51.824;6.306;2023-05-02T02:12:45;101898.31;;;18.58;49.50
73455;BME280;61690;51.824;6.306;2023-05-02T02:15:18;101904.44;;;18.59;49.14
73455;BME280;61690;51.824;6.306;2023-05-02T02:18:00;101898.53;;;18.54;49.04
73455;BME280;61690;51.824;6.306;2023-05-02T02:20:29;101909.00;;;18.55;49.07
73455;BME280;61690;51.824;6.306;2023-05-02T02:22:58;101908.94;;;18.57;49.06
73455;BME280;61690;51.824;6.306;2023-05-02T02:25:26;101913.25;;;18.58;49.20
73455;BME280;61690;51.824;6.306;2023-05-02T02:27:53;101915.09;;;18.56;49.29
73455;BME280;61690;51.824;6.306;2023-05-02T02:30:18;101910.72;;;18.56;49.10
73455;BME280;61690;51.824;6.306;2023-05-02T02:32:43;101912.56;;;18.54;49.17
73455;BME280;61690;51.824;6.306;2023-05-02T02:35:09;101909.84;;;18.56;49.19
73455;BME280;61690;51.824;6.306;2023-05-02T02:37:40;101909.22;;;18.51;49.43
73455;BME280;61690;51.824;6.306;2023-05-02T02:40:27;101908.16;;;18.55;49.34
73455;BME280;61690;51.824;6.306;2023-05-02T02:46:08;101908.28;;;18.52;49.46
73455;BME280;61690;51.824;6.306;2023-05-02T02:48:45;101921.47;;;18.52;49.29
73455;BME280;61690;51.824;6.306;2023-05-02T02:54:33;101919.66;;;18.52;49.44
73455;BME280;61690;51.824;6.306;2023-05-02T02:59:48;101928.53;;;18.51;49.36
73455;BME280;61690;51.824;6.306;2023-05-02T03:02:18;101936.34;;;18.53;49.37
73455;BME280;61690;51.824;6.306;2023-05-02T03:04:50;101938.81;;;18.56;48.79
73455;BME280;61690;51.824;6.306;2023-05-02T03:07:16;101942.47;;;18.53;49.28
73455;BME280;61690;51.824;6.306;2023-05-02T03:09:46;101950.16;;;18.58;48.95
73455;BME280;61690;51.824;6.306;2023-05-02T03:12:12;101945.91;;;18.73;48.79
73455;BME280;61690;51.824;6.306;2023-05-02T03:14:37;101953.16;;;18.87;48.47
73455;BME280;61690;51.824;6.306;2023-05-02T03:17:04;101958.81;;;18.96;48.47
73455;BME280;61690;51.824;6.306;2023-05-02T03:19:29;101962.88;;;19.04;47.96
73455;BME280;61690;51.824;6.306;2023-05-02T03:21:55;101974.13;;;19.07;47.95
73455;BME280;61690;51.824;6.306;2023-05-02T03:24:21;101972.94;;;19.13;47.60
73455;BME280;61690;51.824;6.306;2023-05-02T03:26:46;101976.28;;;19.16;48.07
73455;BME280;61690;51.824;6.306;2023-05-02T03:29:14;101985.75;;;19.20;47.95
73455;BME280;61690;51.824;6.306;2023-05-02T03:31:40;101996.16;;;19.24;47.94
73455;BME280;61690;51.824;6.306;2023-05-02T03:34:06;101985.44;;;19.27;47.44
73455;BME280;61690;51.824;6.306;2023-05-02T03:36:31;101990.38;;;19.33;47.57
73455;BME280;61690;51.824;6.306;2023-05-02T03:38:56;101996.47;;;19.35;47.56
73455;BME280;61690;51.824;6.306;2023-05-02T03:41:22;101996.38;;;19.36;47.38
73455;BME280;61690;51.824;6.306;2023-05-02T03:43:49;102002.34;;;19.40;47.19
73455;BME280;61690;51.824;6.306;2023-05-02T03:46:14;102001.56;;;19.38;47.36
73455;BME280;61690;51.824;6.306;2023-05-02T03:48:40;102002.34;;;19.40;47.41
73455;BME280;61690;51.824;6.306;2023-05-02T03:51:07;101998.94;;;19.38;47.13
73455;BME280;61690;51.824;6.306;2023-05-02T03:53:34;102005.22;;;19.35;47.53
73455;BME280;61690;51.824;6.306;2023-05-02T03:56:00;102005.22;;;19.35;47.67
73455;BME280;61690;51.824;6.306;2023-05-02T03:58:25;102006.91;;;19.36;47.44
73455;BME280;61690;51.824;6.306;2023-05-02T04:00:53;102011.50;;;19.33;47.68
73455;BME280;61690;51.824;6.306;2023-05-02T04:03:21;102015.94;;;19.32;47.47
73455;BME280;61690;51.824;6.306;2023-05-02T04:05:48;102014.13;;;19.33;47.42
73455;BME280;61690;51.824;6.306;2023-05-02T04:08:17;102016.94;;;19.30;47.81
73455;BME280;61690;51.824;6.306;2023-05-02T04:10:43;102020.69;;;19.26;47.76
73455;BME280;61690;51.824;6.306;2023-05-02T04:13:09;102032.06;;;19.26;47.62
73455;BME280;61690;51.824;6.306;2023-05-02T04:15:34;102032.06;;;19.26;47.59
73455;BME280;61690;51.824;6.306;2023-05-02T04:17:59;102039.22;;;19.24;47.52
73455;BME280;61690;51.824;6.306;2023-05-02T04:20:24;102036.81;;;19.19;47.74
73455;BME280;61690;51.824;6.306;2023-05-02T04:22:51;102035.88;;;19.20;47.45
73455;BME280;61690;51.824;6.306;2023-05-02T04:25:17;102034.19;;;19.19;47.54
73455;BME280;61690;51.824;6.306;2023-05-02T04:27:44;102038.81;;;19.14;48.04
73455;BME280;61690;51.824;6.306;2023-05-02T04:30:10;102040.75;;;19.11;47.80
73455;BME280;61690;51.824;6.306;2023-05-02T04:32:36;102040.63;;;19.14;47.58
73455;BME280;61690;51.824;6.306;2023-05-02T04:35:02;102048.41;;;19.15;48.05
73455;BME280;61690;51.824;6.306;2023-05-02T04:37:28;102055.28;;;19.19;48.77
73455;BME280;61690;51.824;6.306;2023-05-02T04:39:54;102059.91;;;19.14;48.68
73455;BME280;61690;51.824;6.306;2023-05-02T04:42:19;102063.63;;;19.10;48.71
73455;BME280;61690;51.824;6.306;2023-05-02T04:44:44;102064.72;;;19.06;48.93
73455;BME280;61690;51.824;6.306;2023-05-02T04:47:11;102077.09;;;19.04;49.11
73455;BME280;61690;51.824;6.306;2023-05-02T04:49:37;102076.31;;;19.02;48.90
73455;BME280;61690;51.824;6.306;2023-05-02T04:52:05;102079.06;;;19.00;49.14
73455;BME280;61690;51.824;6.306;2023-05-02T04:54:33;102089.81;;;18.96;48.88
73455;BME280;61690;51.824;6.306;2023-05-02T04:57:01;102094.31;;;18.94;49.28
73455;BME280;61690;51.824;6.306;2023-05-02T04:59:29;102095.94;;;18.96;48.50
73455;BME280;61690;51.824;6.306;2023-05-02T05:01:55;102098.56;;;18.96;48.73
73455;BME280;61690;51.824;6.306;2023-05-02T05:04:21;102101.31;;;18.95;49.17
73455;BME280;61690;51.824;6.306;2023-05-02T05:06:46;102106.56;;;18.95;49.12
73455;BME280;61690;51.824;6.306;2023-05-02T05:09:13;102110.44;;;18.88;48.94
73455;BME280;61690;51.824;6.306;2023-05-02T05:11:38;102119.41;;;18.84;49.51
73455;BME280;61690;51.824;6.306;2023-05-02T05:14:05;102115.06;;;18.83;48.84
73455;BME280;61690;51.824;6.306;2023-05-02T05:16:31;102126.38;;;18.85;49.35
73455;BME280;61690;51.824;6.306;2023-05-02T05:18:56;102128.09;;;18.86;48.94
73455;BME280;61690;51.824;6.306;2023-05-02T05:21:21;102134.38;;;18.83;49.37
73455;BME280;61690;51.824;6.306;2023-05-02T05:23:48;102129.25;;;18.80;49.02
73455;BME280;61690;51.824;6.306;2023-05-02T05:26:15;102133.63;;;18.79;49.35
73455;BME280;61690;51.824;6.306;2023-05-02T05:28:41;102132.91;;;18.76;49.32
73455;BME280;61690;51.824;6.306;2023-05-02T05:31:08;102147.00;;;18.75;49.35
73455;BME280;61690;51.824;6.306;2023-05-02T05:33:34;102144.38;;;18.75;49.18
73455;BME280;61690;51.824;6.306;2023-05-02T05:36:06;102147.63;;;18.82;49.54
73455;BME280;61690;51.824;6.306;2023-05-02T05:38:34;102154.84;;;18.76;49.43
73455;BME280;61690;51.824;6.306;2023-05-02T05:41:00;102167.00;;;18.80;48.99
73455;BME280;61690;51.824;6.306;2023-05-02T05:43:27;102167.25;;;18.74;49.52
73455;BME280;61690;51.824;6.306;2023-05-02T05:45:53;102169.09;;;18.72;49.07
73455;BME280;61690;51.824;6.306;2023-05-02T05:48:19;102172.66;;;18.71;49.18
73455;BME280;61690;51.824;6.306;2023-05-02T05:50:45;102176.06;;;18.73;49.46
73455;BME280;61690;51.824;6.306;2023-05-02T05:53:10;102171.81;;;18.71;49.04
73455;BME280;61690;51.824;6.306;2023-05-02T05:55:36;102177.91;;;18.71;48.95
73455;BME280;61690;51.824;6.306;2023-05-02T05:58:04;102181.50;;;18.70;49.01
73455;BME280;61690;51.824;6.306;2023-05-02T06:00:32;102185.91;;;18.70;49.45
73455;BME280;61690;51.824;6.306;2023-05-02T06:02:58;102194.69;;;18.70;49.00
73455;BME280;61690;51.824;6.306;2023-05-02T06:05:23;102200.13;;;18.66;49.48
73455;BME280;61690;51.824;6.306;2023-05-02T06:07:49;102201.81;;;18.68;49.43
73455;BME280;61690;51.824;6.306;2023-05-02T06:10:14;102210.56;;;18.69;49.09
73455;BME280;61690;51.824;6.306;2023-05-02T06:12:40;102210.78;;;18.64;49.40
73455;BME280;61690;51.824;6.306;2023-05-02T06:15:06;102214.19;;;18.66;48.96
73455;BME280;61690;51.824;6.306;2023-05-02T06:17:31;102215.94;;;18.66;48.99
73455;BME280;61690;51.824;6.306;2023-05-02T06:19:57;102223.94;;;18.64;49.17
73455;BME280;61690;51.824;6.306;2023-05-02T06:22:22;102229.22;;;18.64;49.32
73455;BME280;61690;51.824;6.306;2023-05-02T06:24:47;102240.66;;;18.63;49.24
73455;BME280;61690;51.824;6.306;2023-05-02T06:27:13;102244.16;;;18.64;49.16
73455;BME280;61690;51.824;6.306;2023-05-02T06:29:38;102239.81;;;18.63;49.07
73455;BME280;61690;51.824;6.306;2023-05-02T06:32:04;102249.53;;;18.62;48.83
73455;BME280;61690;51.824;6.306;2023-05-02T06:34:33;102253.06;;;18.61;48.78
73455;BME280;61690;51.824;6.306;2023-05-02T06:37:00;102256.69;;;18.58;48.87
73455;BME280;61690;51.824;6.306;2023-05-02T06:39:25;102254.25;;;18.54;49.33
73455;BME280;61690;51.824;6.306;2023-05-02T06:41:50;102265.44;;;18.59;49.09
73455;BME280;61690;51.824;6.306;2023-05-02T06:44:20;102272.50;;;18.58;48.84
73455;BME280;61690;51.824;6.306;2023-05-02T06:46:45;102276.91;;;18.58;48.77
73455;BME280;61690;51.824;6.306;2023-05-02T06:49:10;102288.38;;;18.57;49.30
73455;BME280;61690;51.824;6.306;2023-05-02T06:51:36;102291.94;;;18.56;48.72
73455;BME280;61690;51.824;6.306;2023-05-02T06:54:01;102292.97;;;18.52;48.79
73455;BME280;61690;51.824;6.306;2023-05-02T06:56:26;102304.31;;;18.54;49.03
73455;BME280;61690;51.824;6.306;2023-05-02T06:58:52;102306.94;;;18.54;49.02
73455;BME280;61690;51.824;6.306;2023-05-02T07:01:19;102299.19;;;18.51;49.22
73455;BME280;61690;51.824;6.306;2023-05-02T07:03:45;102297.06;;;18.79;48.54
73455;BME280;61690;51.824;6.306;2023-05-02T07:06:11;102303.00;;;19.05;48.08
73455;BME280;61690;51.824;6.306;2023-05-02T07:08:36;102306.50;;;19.25;47.12
73455;BME280;61690;51.824;6.306;2023-05-02T07:11:03;102317.47;;;19.53;47.28
73455;BME280;61690;51.824;6.306;2023-05-02T07:13:28;102316.81;;;19.67;46.78
73455;BME280;61690;51.824;6.306;2023-05-02T07:15:53;102324.03;;;19.83;47.18
73455;BME280;61690;51.824;6.306;2023-05-02T07:18:19;102328.69;;;19.96;47.04
73455;BME280;61690;51.824;6.306;2023-05-02T07:20:46;102330.47;;;20.13;46.81
73455;BME280;61690;51.824;6.306;2023-05-02T07:23:12;102330.34;;;20.34;46.58
73455;BME280;61690;51.824;6.306;2023-05-02T07:25:39;102338.34;;;20.50;46.43
73455;BME280;61690;51.824;6.306;2023-05-02T07:28:05;102344.94;;;20.60;46.37
73455;BME280;61690;51.824;6.306;2023-05-02T07:30:31;102344.47;;;20.69;46.11
73455;BME280;61690;51.824;6.306;2023-05-02T07:32:56;102342.13;;;20.81;46.19
73455;BME280;61690;51.824;6.306;2023-05-02T07:35:22;102354.75;;;20.91;46.07
73455;BME280;61690;51.824;6.306;2023-05-02T07:37:47;102354.00;;;20.89;46.23
73455;BME280;61690;51.824;6.306;2023-05-02T07:40:12;102354.69;;;20.93;46.59
73455;BME280;61690;51.824;6.306;2023-05-02T07:42:38;102353.44;;;21.00;46.41
73455;BME280;61690;51.824;6.306;2023-05-02T07:45:05;102367.88;;;21.10;46.25
73455;BME280;61690;51.824;6.306;2023-05-02T07:47:31;102362.44;;;21.13;46.16
73455;BME280;61690;51.824;6.306;2023-05-02T07:49:56;102364.84;;;21.18;46.45
73455;BME280;61690;51.824;6.306;2023-05-02T07:52:21;102367.22;;;21.23;46.24
73455;BME280;61690;51.824;6.306;2023-05-02T07:54:48;102373.81;;;21.31;46.20
73455;BME280;61690;51.824;6.306;2023-05-02T07:57:16;102371.09;;;21.33;46.17
73455;BME280;61690;51.824;6.306;2023-05-02T07:59:42;102377.69;;;21.42;46.19
73455;BME280;61690;51.824;6.306;2023-05-02T08:02:08;102384.47;;;21.47;46.18
73455;BME280;61690;51.824;6.306;2023-05-02T08:04:35;102379.88;;;21.51;46.04
73455;BME280;61690;51.824;6.306;2023-05-02T08:07:00;102387.47;;;21.57;46.02
73455;BME280;61690;51.824;6.306;2023-05-02T08:09:27;102389.97;;;21.60;46.15
73455;BME280;61690;51.824;6.306;2023-05-02T08:11:54;102390.66;;;21.64;46.19
73455;BME280;61690;51.824;6.306;2023-05-02T08:14:21;102391.00;;;21.58;46.03
73455;BME280;61690;51.824;6.306;2023-05-02T08:16:48;102394.22;;;21.47;45.99
73455;BME280;61690;51.824;6.306;2023-05-02T08:19:14;102391.19;;;21.37;45.88
73455;BME280;61690;51.824;6.306;2023-05-02T08:21:39;102404.97;;;21.26;46.00
73455;BME280;61690;51.824;6.306;2023-05-02T08:24:05;102408.19;;;21.15;46.14
73455;BME280;61690;51.824;6.306;2023-05-02T08:26:30;102405.38;;;21.19;46.40
73455;BME280;61690;51.824;6.306;2023-05-02T08:28:55;102415.81;;;21.22;46.11
73455;BME280;61690;51.824;6.306;2023-05-02T08:31:21;102412.53;;;21.17;46.80
73455;BME280;61690;51.824;6.306;2023-05-02T08:33:47;102424.28;;;21.11;47.09
73455;BME280;61690;51.824;6.306;2023-05-02T08:36:15;102419.88;;;21.11;47.14
73455;BME280;61690;51.824;6.306;2023-05-02T08:38:43;102429.06;;;21.04;47.39
73455;BME280;61690;51.824;6.306;2023-05-02T08:41:16;102431.78;;;21.03;47.57
73455;BME280;61690;51.824;6.306;2023-05-02T08:43:42;102439.66;;;21.04;47.70
73455;BME280;61690;51.824;6.306;2023-05-02T08:46:09;102442.28;;;21.04;47.67
73455;BME280;61690;51.824;6.306;2023-05-02T08:48:36;102446.75;;;21.04;47.84
73455;BME280;61690;51.824;6.306;2023-05-02T08:51:03;102447.34;;;20.91;47.96
73455;BME280;61690;51.824;6.306;2023-05-02T08:53:36;102446.25;;;20.95;48.26
73455;BME280;61690;51.824;6.306;2023-05-02T08:56:02;102453.41;;;20.93;48.30
73455;BME280;61690;51.824;6.306;2023-05-02T08:58:28;102454.38;;;20.92;48.32
73455;BME280;61690;51.824;6.306;2023-05-02T09:00:55;102458.94;;;20.89;48.33
73455;BME280;61690;51.824;6.306;2023-05-02T09:03:35;102459.72;;;20.91;48.39
73455;BME280;61690;51.824;6.306;2023-05-02T09:06:09;102465.16;;;20.88;48.46
73455;BME280;61690;51.824;6.306;2023-05-02T09:08:37;102475.59;;;20.91;48.29
73455;BME280;61690;51.824;6.306;2023-05-02T09:11:05;102471.31;;;20.88;48.75
73455;BME280;61690;51.824;6.306;2023-05-02T09:13:36;102471.53;;;20.84;48.78
73455;BME280;61690;51.824;6.306;2023-05-02T09:16:03;102473.06;;;20.70;49.11
73455;BME280;61690;51.824;6.306;2023-05-02T09:18:32;102474.41;;;20.62;49.10
73455;BME280;61690;51.824;6.306;2023-05-02T09:20:59;102473.81;;;20.55;49.18
73455;BME280;61690;51.824;6.306;2023-05-02T09:23:39;102476.50;;;20.53;48.88
73455;BME280;61690;51.824;6.306;2023-05-02T09:26:21;102485.47;;;20.51;48.88
73455;BME280;61690;51.824;6.306;2023-05-02T09:28:52;102485.75;;;20.45;49.06
73455;BME280;61690;51.824;6.306;2023-05-02T09:31:19;102487.88;;;20.55;48.31
73455;BME280;61690;51.824;6.306;2023-05-02T09:33:48;102495.72;;;20.57;48.18
73455;BME280;61690;51.824;6.306;2023-05-02T09:36:16;102494.81;;;20.58;48.56
73455;BME280;61690;51.824;6.306;2023-05-02T09:38:42;102491.41;;;20.56;48.23
73455;BME280;61690;51.824;6.306;2023-05-02T09:41:08;102493.94;;;20.57;48.63
73455;BME280;61690;51.824;6.306;2023-05-02T09:43:34;102496.94;;;20.69;48.05
73455;BME280;61690;51.824;6.306;2023-05-02T09:46:04;102491.13;;;20.62;48.11
73455;BME280;61690;51.824;6.306;2023-05-02T09:48:50;102498.59;;;20.52;48.07
73455;BME280;61690;51.824;6.306;2023-05-02T09:51:19;102506.13;;;20.43;48.38
73455;BME280;61690;51.824;6.306;2023-05-02T09:53:46;102509.19;;;20.33;48.33
73455;BME280;61690;51.824;6.306;2023-05-02T09:56:11;102507.28;;;20.37;48.23
73455;BME280;61690;51.824;6.306;2023-05-02T09:58:37;102514.56;;;20.32;48.21
73455;BME280;61690;51.824;6.306;2023-05-02T10:01:02;102514.91;;;20.24;48.54
73455;BME280;61690;51.824;6.306;2023-05-02T10:03:29;102519.91;;;20.30;48.30
73455;BME280;61690;51.824;6.306;2023-05-02T10:05:56;102525.47;;;20.24;48.16
73455;BME280;61690;51.824;6.306;2023-05-02T10:08:26;102526.44;;;20.23;48.24
73455;BME280;61690;51.824;6.306;2023-05-02T10:10:54;102524.56;;;20.25;47.81
73455;BME280;61690;51.824;6.306;2023-05-02T10:13:22;102521.41;;;20.17;48.15
73455;BME280;61690;51.824;6.306;2023-05-02T10:15:53;102528.25;;;20.21;48.09
73455;BME280;61690;51.824;6.306;2023-05-02T10:18:25;102523.13;;;20.18;48.10
73455;BME280;61690;51.824;6.306;2023-05-02T10:20:58;102521.22;;;20.22;47.16
73455;BME280;61690;51.824;6.306;2023-05-02T10:23:26;102523.13;;;20.18;46.60
73455;BME280;61690;51.824;6.306;2023-05-02T10:25:52;102526.56;;;20.20;46.41
73455;BME280;61690;51.824;6.306;2023-05-02T10:28:19;102528.84;;;20.28;46.57
73455;BME280;61690;51.824;6.306;2023-05-02T10:30:46;102528.72;;;20.31;46.82
73455;BME280;61690;51.824;6.306;2023-05-02T10:33:20;102533.84;;;20.34;46.94
73455;BME280;61690;51.824;6.306;2023-05-02T10:35:45;102543.50;;;20.35;47.43
73455;BME280;61690;51.824;6.306;2023-05-02T10:38:13;102534.69;;;20.34;47.89
73455;BME280;61690;51.824;6.306;2023-05-02T10:40:40;102533.69;;;20.37;48.25
73455;BME280;61690;51.824;6.306;2023-05-02T10:43:13;102539.84;;;20.37;48.25
73455;BME280;61690;51.824;6.306;2023-05-02T10:45:39;102544.34;;;20.35;48.46
73455;BME280;61690;51.824;6.306;2023-05-02T10:50:52;102531.13;;;20.35;48.73
73455;BME280;61690;51.824;6.306;2023-05-02T10:53:34;102539.00;;;20.37;48.86
73455;BME280;61690;51.824;6.306;2023-05-02T10:58:38;102542.53;;;20.36;49.09
73455;BME280;61690;51.824;6.306;2023-05-02T11:04:02;102539.91;;;20.17;49.04
73455;BME280;61690;51.824;6.306;2023-05-02T11:06:30;102533.63;;;20.20;48.87
73455;BME280;61690;51.824;6.306;2023-05-02T11:11:42;102526.25;;;20.26;48.64
73455;BME280;61690;51.824;6.306;2023-05-02T11:14:08;102535.13;;;20.25;48.49
73455;BME280;61690;51.824;6.306;2023-05-02T11:24:51;102529.56;;;20.31;48.17
73455;BME280;61690;51.824;6.306;2023-05-02T11:30:15;102523.25;;;20.34;48.04
73455;BME280;61690;51.824;6.306;2023-05-02T11:35:23;102524.06;;;20.36;48.35
73455;BME280;61690;51.824;6.306;2023-05-02T11:38:17;102525.91;;;20.34;48.19
73455;BME280;61690;51.824;6.306;2023-05-02T11:43:17;102524.13;;;20.34;48.04
73455;BME280;61690;51.824;6.306;2023-05-02T11:45:43;102520.69;;;20.32;48.21
73455;BME280;61690;51.824;6.306;2023-05-02T11:48:15;102527.28;;;20.24;48.71
73455;BME280;61690;51.824;6.306;2023-05-02T11:50:50;102531.78;;;20.22;48.23
73455;BME280;61690;51.824;6.306;2023-05-02T11:53:20;102531.72;;;20.23;48.29
73455;BME280;61690;51.824;6.306;2023-05-02T11:55:53;102542.06;;;20.28;48.20
73455;BME280;61690;51.824;6.306;2023-05-02T11:58:21;102533.00;;;20.33;48.09
73455;BME280;61690;51.824;6.306;2023-05-02T12:00:47;102535.63;;;20.33;47.99
73455;BME280;61690;51.824;6.306;2023-05-02T12:03:19;102536.53;;;20.32;48.02
73455;BME280;61690;51.824;6.306;2023-05-02T12:05:46;102544.41;;;20.34;48.33
73455;BME280;61690;51.824;6.306;2023-05-02T12:08:20;102547.84;;;20.36;48.36
73455;BME280;61690;51.824;6.306;2023-05-02T12:10:46;102548.72;;;20.36;48.62
73455;BME280;61690;51.824;6.306;2023-05-02T12:13:14;102548.78;;;20.35;48.76
73455;BME280;61690;51.824;6.306;2023-05-02T12:15:40;102550.41;;;20.37;48.60
73455;BME280;61690;51.824;6.306;2023-05-02T12:18:06;102561.94;;;20.36;48.62
73455;BME280;61690;51.824;6.306;2023-05-02T12:20:36;102559.53;;;20.30;48.75
73455;BME280;61690;51.824;6.306;2023-05-02T12:23:05;102570.13;;;20.30;48.38
73455;BME280;61690;51.824;6.306;2023-05-02T12:25:36;102563.69;;;20.36;49.21
73455;BME280;61690;51.824;6.306;2023-05-02T12:28:02;102560.13;;;20.37;48.84
73455;BME280;61690;51.824;6.306;2023-05-02T12:30:29;102559.28;;;20.36;48.97
73455;BME280;61690;51.824;6.306;2023-05-02T12:32:57;102559.47;;;20.32;46.35
73455;BME280;61690;51.824;6.306;2023-05-02T12:35:25;102565.72;;;20.31;45.50
73455;BME280;61690;51.824;6.306;2023-05-02T12:37:52;102569.84;;;20.36;45.12
73455;BME280;61690;51.824;6.306;2023-05-02T12:40:18;102579.00;;;20.29;45.09
73455;BME280;61690;51.824;6.306;2023-05-02T12:42:57;102580.84;;;20.27;45.04
73455;BME280;61690;51.824;6.306;2023-05-02T12:45:23;102585.84;;;20.33;44.46
73455;BME280;61690;51.824;6.306;2023-05-02T12:47:49;102583.50;;;20.27;44.66
73455;BME280;61690;51.824;6.306;2023-05-02T12:50:14;102582.53;;;20.28;44.74
73455;BME280;61690;51.824;6.306;2023-05-02T12:52:48;102587.63;;;20.33;44.75
73455;BME280;61690;51.824;6.306;2023-05-02T12:55:27;102582.41;;;20.31;44.85
73455;BME280;61690;51.824;6.306;2023-05-02T12:58:01;102587.53;;;20.34;44.55
73455;BME280;61690;51.824;6.306;2023-05-02T13:00:26;102586.06;;;20.29;44.34
73455;BME280;61690;51.824;6.306;2023-05-02T13:02:53;102590.81;;;20.21;43.83
73455;BME280;61690;51.824;6.306;2023-05-02T13:05:19;102591.91;;;20.16;42.96
73455;BME280;61690;51.824;6.306;2023-05-02T13:07:46;102586.69;;;20.15;42.79
73455;BME280;61690;51.824;6.306;2023-05-02T13:10:12;102588.13;;;20.22;43.13
73455;BME280;61690;51.824;6.306;2023-05-02T13:12:40;102586.31;;;20.23;43.06
73455;BME280;61690;51.824;6.306;2023-05-02T13:15:07;102598.81;;;20.19;43.57
73455;BME280;61690;51.824;6.306;2023-05-02T13:17:33;102587.69;;;20.12;42.60
73455;BME280;61690;51.824;6.306;2023-05-02T13:19:59;102593.69;;;20.16;42.57
73455;BME280;61690;51.824;6.306;2023-05-02T13:22:25;102589.31;;;20.15;42.95
73455;BME280;61690;51.824;6.306;2023-05-02T13:24:51;102598.25;;;20.12;42.76
73455;BME280;61690;51.824;6.306;2023-05-02T13:27:17;102598.25;;;20.12;42.81
73455;BME280;61690;51.824;6.306;2023-05-02T13:29:46;102593.97;;;20.10;42.38
73455;BME280;61690;51.824;6.306;2023-05-02T13:32:12;102595.28;;;20.00;42.17
73455;BME280;61690;51.824;6.306;2023-05-02T13:34:40;102591.56;;;20.04;42.26
73455;BME280;61690;51.824;6.306;2023-05-02T13:37:05;102605.00;;;19.99;42.52
73455;BME280;61690;51.824;6.306;2023-05-02T13:39:30;102597.75;;;20.04;42.25